createdAt,value
2019-04-07T00:01:00.824Z,15.70
2019-04-07T00:03:08.048Z,17.82
2019-04-07T00:05:16.158Z,15.95
2019-04-07T00:07:24.184Z,16.05
2019-04-07T00:09:32.071Z,16.42
2019-04-07T00:11:38.997Z,15.70
2019-04-07T00:13:46.084Z,15.45
2019-04-07T00:15:55.836Z,18.23
2019-04-07T00:18:02.589Z,15.37
2019-04-07T00:20:09.808Z,17.10
2019-04-07T00:22:17.016Z,16.77
2019-04-07T00:24:23.920Z,15.18
2019-04-07T00:26:31.153Z,16.82
2019-04-07T00:28:38.019Z,16.32
2019-04-07T00:30:46.001Z,15.53
2019-04-07T00:32:52.783Z,16.60
2019-04-07T00:34:59.957Z,15.55
2019-04-07T00:37:07.913Z,16.77
2019-04-07T00:39:14.844Z,16.20
2019-04-07T00:41:22.123Z,16.67
2019-04-07T00:43:29.231Z,17.30
2019-04-07T00:45:36.152Z,15.98
2019-04-07T00:47:42.959Z,15.15
2019-04-07T00:49:50.136Z,17.90
2019-04-07T00:51:57.530Z,17.27
2019-04-07T00:54:05.068Z,16.60
2019-04-07T00:56:13.146Z,17.90
2019-04-07T00:58:21.364Z,16.20
2019-04-07T01:00:29.940Z,16.23
2019-04-07T01:02:37.541Z,14.95
2019-04-07T01:04:44.622Z,16.80
2019-04-07T01:06:53.738Z,15.58
2019-04-07T01:09:01.104Z,14.60
2019-04-07T01:11:09.821Z,14.85
2019-04-07T01:13:16.759Z,16.02
2019-04-07T01:15:24.110Z,15.90
2019-04-07T01:17:31.134Z,15.50
2019-04-07T01:19:40.701Z,15.50
2019-04-07T01:23:56.931Z,16.12
2019-04-07T01:26:03.714Z,16.50
2019-04-07T01:28:11.004Z,15.63
2019-04-07T01:30:18.359Z,16.70
2019-04-07T01:32:25.706Z,15.93
2019-04-07T01:34:32.528Z,15.48
2019-04-07T01:36:39.300Z,15.72
2019-04-07T01:38:46.105Z,16.12
2019-04-07T01:40:57.388Z,16.40
2019-04-07T01:43:09.164Z,16.85
2019-04-07T01:45:24.782Z,17.30
2019-04-07T01:47:33.153Z,16.93
2019-04-07T01:49:47.650Z,17.80
2019-04-07T01:52:14.268Z,16.02
2019-04-07T01:54:24.958Z,16.62
2019-04-07T01:56:32.718Z,16.97
2019-04-07T01:58:41.594Z,16.60
2019-04-07T02:00:48.406Z,16.77
2019-04-07T02:03:12.878Z,17.25
2019-04-07T02:05:34.307Z,16.57
2019-04-07T02:07:44.581Z,15.78
2019-04-07T02:09:58.711Z,16.00
2019-04-07T02:12:18.106Z,16.00
2019-04-07T02:14:32.426Z,15.75
2019-04-07T02:16:51.265Z,16.20
2019-04-07T02:19:13.250Z,14.83
2019-04-07T02:21:29.603Z,16.10
2019-04-07T02:23:38.186Z,15.20
2019-04-07T02:25:46.911Z,17.20
2019-04-07T02:27:58.430Z,15.35
2019-04-07T02:30:14.511Z,15.88
2019-04-07T02:32:32.933Z,16.30
2019-04-07T02:34:57.480Z,15.73
2019-04-07T02:37:06.632Z,16.35
2019-04-07T02:41:38.798Z,15.32
2019-04-07T02:43:51.279Z,17.23
2019-04-07T02:46:02.633Z,16.73
2019-04-07T02:48:24.186Z,15.08
2019-04-07T02:50:36.684Z,16.75
2019-04-07T02:52:54.775Z,13.53
2019-04-07T02:55:04.719Z,15.88
2019-04-07T02:57:22.221Z,14.78
2019-04-07T02:59:31.194Z,14.28
2019-04-07T03:04:03.258Z,14.90
2019-04-07T03:06:10.294Z,15.32
2019-04-07T03:08:35.650Z,17.10
2019-04-07T03:10:57.635Z,14.50
2019-04-07T03:13:06.200Z,14.78
2019-04-07T03:15:16.133Z,16.60
2019-04-07T03:17:25.643Z,14.15
2019-04-07T03:19:40.270Z,15.88
2019-04-07T03:22:06.883Z,15.28
2019-04-07T03:24:26.517Z,15.80
2019-04-07T03:26:51.569Z,14.47
2019-04-07T03:29:03.699Z,16.02
2019-04-07T03:31:29.736Z,15.18
2019-04-07T03:33:45.435Z,15.50
2019-04-07T03:36:01.698Z,14.70
2019-04-07T03:38:08.624Z,15.53
2019-04-07T03:40:18.247Z,15.18
2019-04-07T03:42:32.825Z,15.43
2019-04-07T03:44:47.608Z,15.78
2019-04-07T03:46:59.877Z,14.93
2019-04-07T03:49:16.920Z,15.72
2019-04-07T03:51:25.683Z,15.03
2019-04-07T03:53:37.555Z,14.03
2019-04-07T03:55:49.469Z,15.60
2019-04-07T03:58:12.105Z,14.68
2019-04-07T04:01:13.609Z,14.93
2019-04-07T04:03:22.777Z,15.38
2019-04-07T04:05:34.292Z,17.07
2019-04-07T04:07:49.433Z,15.20
2019-04-07T04:10:14.152Z,15.60
2019-04-07T04:12:31.798Z,15.48
2019-04-07T04:14:59.857Z,17.05
2019-04-07T04:17:06.925Z,16.65
2019-04-07T04:19:14.457Z,17.00
2019-04-07T04:21:22.074Z,16.65
2019-04-07T04:23:30.283Z,16.62
2019-04-07T04:25:37.487Z,15.47
2019-04-07T04:27:44.692Z,17.12
2019-04-07T04:29:52.440Z,16.75
2019-04-07T04:31:59.873Z,15.95
2019-04-07T04:34:06.717Z,14.30
2019-04-07T04:36:13.587Z,16.50
2019-04-07T04:38:20.447Z,16.40
2019-04-07T04:40:28.082Z,15.58
2019-04-07T04:42:35.831Z,15.03
2019-04-07T04:44:44.207Z,15.55
2019-04-07T04:46:51.232Z,15.48
2019-04-07T04:48:58.900Z,16.50
2019-04-07T04:51:06.660Z,17.52
2019-04-07T04:53:13.643Z,16.27
2019-04-07T04:55:20.403Z,15.13
2019-04-07T04:57:27.191Z,16.85
2019-04-07T04:59:34.170Z,15.72
2019-04-07T05:01:40.931Z,16.85
2019-04-07T05:03:47.598Z,17.02
2019-04-07T05:05:54.584Z,16.12
2019-04-07T05:08:04.099Z,16.50
2019-04-07T05:10:10.349Z,15.88
2019-04-07T05:12:17.567Z,16.12
2019-04-07T05:14:25.764Z,16.52
2019-04-07T05:16:33.217Z,17.17
2019-04-07T05:18:41.709Z,14.03
2019-04-07T05:20:48.741Z,15.45
2019-04-07T05:22:55.499Z,15.23
2019-04-07T05:25:02.411Z,15.83
2019-04-07T05:27:09.722Z,15.85
2019-04-07T05:29:17.035Z,15.80
2019-04-07T05:31:23.714Z,16.62
2019-04-07T05:33:30.842Z,14.95
2019-04-07T05:35:37.963Z,15.43
2019-04-07T05:37:44.788Z,17.07
2019-04-07T05:39:51.634Z,14.53
2019-04-07T05:41:59.079Z,16.23
2019-04-07T05:44:06.328Z,17.02
2019-04-07T05:46:13.850Z,16.50
2019-04-07T05:48:21.605Z,18.25
2019-04-07T05:50:28.832Z,16.80
2019-04-07T05:52:39.582Z,17.27
2019-04-07T05:54:45.061Z,17.42
2019-04-07T05:56:52.595Z,18.30
2019-04-07T05:58:59.321Z,17.02
2019-04-07T06:01:06.359Z,17.20
2019-04-07T06:03:13.200Z,16.97
2019-04-07T06:05:19.919Z,18.42
2019-04-07T06:07:30.304Z,17.15
2019-04-07T06:09:35.112Z,17.30
2019-04-07T06:11:41.929Z,17.42
2019-04-07T06:13:48.770Z,17.02
2019-04-07T06:15:55.700Z,15.45
2019-04-07T06:18:02.633Z,17.20
2019-04-07T06:20:14.257Z,16.80
2019-04-07T06:22:20.776Z,17.62
2019-04-07T06:24:31.669Z,14.83
2019-04-07T06:26:37.003Z,16.60
2019-04-07T06:28:46.682Z,16.70
2019-04-07T06:30:53.062Z,15.75
2019-04-07T06:33:00.667Z,18.27
2019-04-07T06:35:12.365Z,17.60
2019-04-07T06:37:17.838Z,18.07
2019-04-07T06:39:24.569Z,16.45
2019-04-07T06:41:34.461Z,17.55
2019-04-07T06:43:41.526Z,17.52
2019-04-07T06:46:00.346Z,16.57
2019-04-07T06:48:09.337Z,16.10
2019-04-07T06:50:45.456Z,17.02
2019-04-07T06:52:45.177Z,19.27
2019-04-07T06:54:55.693Z,18.98
2019-04-07T06:57:20.120Z,19.37
2019-04-07T06:59:29.276Z,17.95
2019-04-07T07:01:39.307Z,19.23
2019-04-07T07:03:46.381Z,16.42
2019-04-07T07:06:11.095Z,16.02
2019-04-07T07:08:22.458Z,14.43
2019-04-07T07:10:37.832Z,14.35
2019-04-07T07:12:47.108Z,15.88
2019-04-07T07:15:03.648Z,15.43
2019-04-07T07:17:14.926Z,15.83
2019-04-07T07:19:28.558Z,14.57
2019-04-07T07:21:44.589Z,14.10
2019-04-07T07:23:52.729Z,15.30
2019-04-07T07:26:02.691Z,16.35
2019-04-07T07:28:11.537Z,13.25
2019-04-07T07:33:57.118Z,17.20
2019-04-07T07:36:24.651Z,15.38
2019-04-07T07:38:32.734Z,16.67
2019-04-07T07:40:40.591Z,20.68
2019-04-07T07:42:50.947Z,15.32
2019-04-07T07:44:58.363Z,16.20
2019-04-07T07:47:06.972Z,16.30
2019-04-07T07:49:13.791Z,16.40
2019-04-07T07:51:20.492Z,18.25
2019-04-07T07:53:28.601Z,16.42
2019-04-07T07:55:37.611Z,16.48
2019-04-07T07:57:44.115Z,17.25
2019-04-07T07:59:50.950Z,16.57
2019-04-07T08:01:58.703Z,17.67
2019-04-07T08:04:08.698Z,14.87
2019-04-07T08:06:16.088Z,16.52
2019-04-07T08:08:23.428Z,15.63
2019-04-07T08:10:30.369Z,16.07
2019-04-07T08:12:37.220Z,17.57
2019-04-07T08:14:44.647Z,16.07
2019-04-07T08:16:53.118Z,17.73
2019-04-07T08:19:00.750Z,16.50
2019-04-07T08:21:08.706Z,16.60
2019-04-07T08:23:15.587Z,15.15
2019-04-07T08:25:24.588Z,17.57
2019-04-07T08:27:32.056Z,16.00
2019-04-07T08:29:39.816Z,17.62
2019-04-07T08:31:51.486Z,17.32
2019-04-07T08:33:55.941Z,16.30
2019-04-07T08:36:03.517Z,16.93
2019-04-07T08:38:11.000Z,16.37
2019-04-07T08:40:18.743Z,16.30
2019-04-07T08:42:26.984Z,18.75
2019-04-07T08:44:34.424Z,17.90
2019-04-07T08:46:43.146Z,18.87
2019-04-07T08:48:52.680Z,18.17
2019-04-07T08:51:00.491Z,17.07
2019-04-07T08:53:10.359Z,17.17
2019-04-07T08:55:15.254Z,17.50
2019-04-07T08:57:23.120Z,18.00
2019-04-07T08:59:31.393Z,17.12
2019-04-07T09:01:40.452Z,16.75
2019-04-07T09:03:48.568Z,17.27
2019-04-07T09:05:57.770Z,17.07
2019-04-07T09:08:06.354Z,16.87
2019-04-07T09:10:18.326Z,17.30
2019-04-07T09:12:26.879Z,17.55
2019-04-07T09:14:33.274Z,16.25
2019-04-07T09:16:44.713Z,16.25
2019-04-07T09:19:09.959Z,17.80
2019-04-07T09:21:20.442Z,16.45
2019-04-07T09:23:29.471Z,17.65
2019-04-07T09:25:40.026Z,17.90
2019-04-07T09:27:54.077Z,16.95
2019-04-07T09:30:07.804Z,17.70
2019-04-07T09:32:31.306Z,16.55
2019-04-07T09:34:41.383Z,16.10
2019-04-07T09:36:53.515Z,17.70
2019-04-07T09:39:03.842Z,19.27
2019-04-07T09:41:13.185Z,18.70
2019-04-07T09:43:19.947Z,18.77
2019-04-07T09:45:28.839Z,16.97
2019-04-07T09:47:53.474Z,16.77
2019-04-07T09:50:20.430Z,16.82
2019-04-07T09:52:36.052Z,18.05
2019-04-07T09:54:44.434Z,18.25
2019-04-07T09:57:10.738Z,16.85
2019-04-07T09:59:29.672Z,16.65
2019-04-07T10:01:50.839Z,18.10
2019-04-07T10:04:14.553Z,17.62
2019-04-07T10:06:39.098Z,17.40
2019-04-07T10:09:03.312Z,16.00
2019-04-07T10:11:12.885Z,16.52
2019-04-07T10:13:21.546Z,16.87
2019-04-07T10:15:40.365Z,16.48
2019-04-07T10:17:49.567Z,16.10
2019-04-07T10:22:23.269Z,17.05
2019-04-07T10:24:34.555Z,16.62
2019-04-07T10:26:46.232Z,16.10
2019-04-07T10:29:04.415Z,15.40
2019-04-07T10:31:19.786Z,17.27
2019-04-07T10:33:30.417Z,16.25
2019-04-07T10:35:36.909Z,16.52
2019-04-07T10:37:51.038Z,16.62
2019-04-07T10:39:58.181Z,15.32
2019-04-07T10:42:16.819Z,16.50
2019-04-07T10:46:31.527Z,15.40
2019-04-07T10:48:53.659Z,14.73
2019-04-07T10:51:12.111Z,14.73
2019-04-07T10:53:27.306Z,14.93
2019-04-07T10:55:52.285Z,13.68
2019-04-07T10:57:59.747Z,14.75
2019-04-07T11:00:11.085Z,14.78
2019-04-07T11:02:27.520Z,14.60
2019-04-07T11:04:35.076Z,13.88
2019-04-07T11:06:44.049Z,13.38
2019-04-07T11:09:01.053Z,13.65
2019-04-07T11:11:09.596Z,14.25
2019-04-07T11:13:28.990Z,14.30
2019-04-07T11:15:48.742Z,13.40
2019-04-07T11:18:11.297Z,13.72
2019-04-07T11:20:22.750Z,12.35
2019-04-07T11:22:49.015Z,12.05
2019-04-07T11:24:55.807Z,12.23
2019-04-07T11:27:17.050Z,12.98
2019-04-07T11:29:23.909Z,13.50
2019-04-07T11:31:32.319Z,12.35
2019-04-07T11:33:45.039Z,13.93
2019-04-07T11:35:53.345Z,14.15
2019-04-07T11:38:17.942Z,13.18
2019-04-07T11:40:24.680Z,14.87
2019-04-07T11:42:46.657Z,14.07
2019-04-07T11:45:03.094Z,13.93
2019-04-07T11:47:15.457Z,13.35
2019-04-07T11:49:25.160Z,12.70
2019-04-07T11:51:40.647Z,12.82
2019-04-07T11:54:05.261Z,12.90
2019-04-07T11:56:32.737Z,12.60
2019-04-07T11:58:47.632Z,12.73
2019-04-07T12:01:12.807Z,12.82
2019-04-07T12:03:19.201Z,13.38
2019-04-07T12:05:28.717Z,12.65
2019-04-07T12:07:56.540Z,13.95
2019-04-07T12:10:30.078Z,13.20
2019-04-07T12:12:54.952Z,13.00
2019-04-07T12:15:19.650Z,13.50
2019-04-07T12:17:43.833Z,13.60
2019-04-07T12:19:55.109Z,12.75
2019-04-07T12:22:11.255Z,13.88
2019-04-07T12:24:24.672Z,13.50
2019-04-07T12:26:31.480Z,12.90
2019-04-07T12:28:49.118Z,13.00
2019-04-07T12:31:12.797Z,12.88
2019-04-07T12:33:20.043Z,13.80
2019-04-07T12:35:32.424Z,12.90
2019-04-07T12:37:54.195Z,13.95
2019-04-07T12:40:09.182Z,13.72
2019-04-07T12:42:20.334Z,13.10
2019-04-07T12:44:29.003Z,14.30
2019-04-07T12:48:47.954Z,15.30
2019-04-07T12:51:03.765Z,14.05
2019-04-07T12:53:25.081Z,13.18
2019-04-07T12:55:40.529Z,13.65
2019-04-07T12:57:56.573Z,13.72
2019-04-07T13:00:21.134Z,12.85
2019-04-07T13:02:28.406Z,14.38
2019-04-07T13:04:39.744Z,13.15
2019-04-07T13:06:48.057Z,14.35
2019-04-07T13:08:59.546Z,13.55
2019-04-07T13:11:31.232Z,14.10
2019-04-07T13:13:47.043Z,13.85
2019-04-07T13:15:58.234Z,13.50
2019-04-07T13:18:10.715Z,14.13
2019-04-07T13:20:31.140Z,14.10
2019-04-07T13:22:42.518Z,14.93
2019-04-07T13:25:00.165Z,13.40
2019-04-07T13:27:22.166Z,14.07
2019-04-07T13:29:38.723Z,14.03
2019-04-07T13:31:44.875Z,13.62
2019-04-07T13:33:59.583Z,14.10
2019-04-07T13:36:25.322Z,13.43
2019-04-07T13:38:33.924Z,14.50
2019-04-07T13:40:58.271Z,14.47
2019-04-07T13:43:16.493Z,12.70
2019-04-07T13:45:23.120Z,13.43
2019-04-07T13:47:33.002Z,13.72
2019-04-07T13:49:44.759Z,13.45
2019-04-07T13:52:00.348Z,14.10
2019-04-07T13:54:20.066Z,13.18
2019-04-07T13:56:50.665Z,14.60
2019-04-07T13:59:09.196Z,14.53
2019-04-07T14:03:50.447Z,13.32
2019-04-07T14:06:14.932Z,12.63
2019-04-07T14:08:29.942Z,13.32
2019-04-07T14:10:51.405Z,13.30
2019-04-07T14:13:11.960Z,13.50
2019-04-07T14:15:20.461Z,13.53
2019-04-07T14:17:44.914Z,11.78
2019-04-07T14:19:54.090Z,12.98
2019-04-07T14:22:00.673Z,13.88
2019-04-07T14:24:13.154Z,13.75
2019-04-07T14:26:22.241Z,14.18
2019-04-07T14:28:44.290Z,13.62
2019-04-07T14:31:10.880Z,13.00
2019-04-07T14:33:28.674Z,12.70
2019-04-07T14:35:36.974Z,13.10
2019-04-07T14:37:49.540Z,12.25
2019-04-07T14:40:03.657Z,12.70
2019-04-07T14:42:18.713Z,12.33
2019-04-07T14:44:39.065Z,13.62
2019-04-07T14:46:51.288Z,13.48
2019-04-07T14:49:02.535Z,12.93
2019-04-07T14:51:11.209Z,12.10
2019-04-07T14:53:22.173Z,12.63
2019-04-07T14:55:37.957Z,12.70
2019-04-07T14:57:51.155Z,12.90
2019-04-07T15:00:00.037Z,12.73
2019-04-07T15:02:07.375Z,12.00
2019-04-07T15:04:18.184Z,12.10
2019-04-07T15:06:30.934Z,13.00
2019-04-07T15:08:46.266Z,12.13
2019-04-07T15:10:56.232Z,11.93
2019-04-07T15:13:05.336Z,11.53
2019-04-07T15:15:12.420Z,12.47
2019-04-07T15:17:19.330Z,13.15
2019-04-07T15:19:26.016Z,12.75
2019-04-07T15:21:34.684Z,12.70
2019-04-07T15:23:44.831Z,12.73
2019-04-07T15:25:52.756Z,12.43
2019-04-07T15:28:01.177Z,12.30
2019-04-07T15:30:15.292Z,11.70
2019-04-07T15:32:24.193Z,12.20
2019-04-07T15:34:34.262Z,12.78
2019-04-07T15:36:41.460Z,12.40
2019-04-07T15:38:48.603Z,11.80
2019-04-07T15:40:55.921Z,12.55
2019-04-07T15:43:05.734Z,12.55
2019-04-07T15:45:13.347Z,12.25
2019-04-07T15:47:21.137Z,12.33
2019-04-07T15:49:29.515Z,12.98
2019-04-07T15:51:36.507Z,14.58
2019-04-07T15:53:46.425Z,13.45
2019-04-07T15:56:01.128Z,13.55
2019-04-07T15:58:00.105Z,11.88
2019-04-07T16:00:11.201Z,13.78
2019-04-07T16:02:18.059Z,12.98
2019-04-07T16:04:28.265Z,12.63
2019-04-07T16:06:35.541Z,13.10
2019-04-07T16:08:42.331Z,12.28
2019-04-07T16:10:49.066Z,12.75
2019-04-07T16:12:58.962Z,12.18
2019-04-07T16:15:04.928Z,12.35
2019-04-07T16:17:12.203Z,13.70
2019-04-07T16:19:33.109Z,12.78
2019-04-07T16:21:29.756Z,12.65
2019-04-07T16:23:37.487Z,13.08
2019-04-07T16:25:44.402Z,13.18
2019-04-07T16:27:51.559Z,12.75
2019-04-07T16:29:58.243Z,13.43
2019-04-07T16:32:05.112Z,13.10
2019-04-07T16:34:11.876Z,13.48
2019-04-07T16:36:18.567Z,13.22
2019-04-07T16:38:28.016Z,13.85
2019-04-07T16:40:35.062Z,14.05
2019-04-07T16:42:53.834Z,14.25
2019-04-07T16:44:53.696Z,14.00
2019-04-07T16:47:04.029Z,15.58
2019-04-07T16:49:11.510Z,14.38
2019-04-07T16:51:18.869Z,15.32
2019-04-07T16:53:25.896Z,16.02
2019-04-07T16:55:41.428Z,17.60
2019-04-07T16:57:50.307Z,17.82
2019-04-07T17:00:00.410Z,17.05
2019-04-07T17:02:08.035Z,15.78
2019-04-07T17:04:15.825Z,14.80
2019-04-07T17:06:22.946Z,16.77
2019-04-07T17:08:30.048Z,16.90
2019-04-07T17:10:37.095Z,16.23
2019-04-07T17:12:44.034Z,17.37
2019-04-07T17:14:53.215Z,18.90
2019-04-07T17:17:00.326Z,17.07
2019-04-07T17:19:07.627Z,18.55
2019-04-07T17:21:19.087Z,17.92
2019-04-07T17:23:26.187Z,18.25
2019-04-07T17:25:34.590Z,20.25
2019-04-07T17:27:42.519Z,21.30
2019-04-07T17:29:54.086Z,19.52
2019-04-07T17:32:01.676Z,19.45
2019-04-07T17:34:10.885Z,21.27
2019-04-07T17:36:21.010Z,19.60
2019-04-07T17:40:51.936Z,18.15
2019-04-07T17:43:02.929Z,18.73
2019-04-07T17:45:13.850Z,18.40
2019-04-07T17:47:23.444Z,18.20
2019-04-07T17:49:50.524Z,17.45
2019-04-07T17:52:11.077Z,19.57
2019-04-07T17:54:36.536Z,17.20
2019-04-07T17:57:04.055Z,19.02
2019-04-07T17:59:20.958Z,20.25
2019-04-07T18:01:33.375Z,23.40
2019-04-07T18:03:58.362Z,25.05
2019-04-07T18:06:10.090Z,26.27
2019-04-07T18:08:25.199Z,26.27
2019-04-07T18:10:32.445Z,26.17
2019-04-07T18:12:51.545Z,27.50
2019-04-07T18:15:17.882Z,27.85
2019-04-07T18:17:29.995Z,27.90
2019-04-07T18:19:54.785Z,27.20
2019-04-07T18:22:22.039Z,28.20
2019-04-07T18:24:37.779Z,27.13
2019-04-07T18:26:49.279Z,29.72
2019-04-07T18:29:05.861Z,30.45
2019-04-07T18:31:36.256Z,30.37
2019-04-07T18:34:02.477Z,33.90
2019-04-07T18:36:19.952Z,33.28
2019-04-07T18:38:34.260Z,34.43
2019-04-07T18:40:44.038Z,35.23
2019-04-07T18:43:02.744Z,33.28
2019-04-07T18:45:21.595Z,32.23
2019-04-07T18:50:07.131Z,35.38
2019-04-07T18:52:26.871Z,41.20
2019-04-07T18:54:41.108Z,36.42
2019-04-07T18:56:55.802Z,46.53
2019-04-07T18:59:21.926Z,66.53
2019-04-07T19:01:42.681Z,72.90
2019-04-07T19:03:55.987Z,51.92
2019-04-07T19:06:20.651Z,53.90
2019-04-07T19:08:37.868Z,54.05
2019-04-07T19:11:12.240Z,54.75
2019-04-07T19:13:18.541Z,54.80
2019-04-07T19:15:40.798Z,45.50
2019-04-07T19:17:50.339Z,52.62
2019-04-07T19:20:17.227Z,60.95
2019-04-07T19:22:34.616Z,60.40
2019-04-07T19:24:59.174Z,53.70
2019-04-07T19:27:28.688Z,63.17
2019-04-07T19:29:33.773Z,63.68
2019-04-07T19:31:52.209Z,61.10
2019-04-07T19:34:07.043Z,64.22
2019-04-07T19:36:31.382Z,62.03
2019-04-07T19:38:41.258Z,57.70
2019-04-07T19:40:49.249Z,59.35
2019-04-07T19:43:10.704Z,57.85
2019-04-07T19:47:50.455Z,56.13
2019-04-07T19:50:10.803Z,55.43
2019-04-07T19:52:25.086Z,50.50
2019-04-07T19:54:34.251Z,52.67
2019-04-07T19:58:51.358Z,53.60
2019-04-07T20:01:06.321Z,55.58
2019-04-07T20:03:22.181Z,54.18
2019-04-07T20:05:32.208Z,70.03
2019-04-07T20:07:56.086Z,65.92
2019-04-07T20:10:11.041Z,61.28
2019-04-07T20:12:21.105Z,55.03
2019-04-07T20:14:55.539Z,55.23
2019-04-07T20:17:02.773Z,62.30
2019-04-07T20:19:12.953Z,56.92
2019-04-07T20:21:40.131Z,56.80
2019-04-07T20:23:52.520Z,68.40
2019-04-07T20:26:18.593Z,68.10
2019-04-07T20:28:33.224Z,64.80
2019-04-07T20:30:49.629Z,69.67
2019-04-07T20:33:02.885Z,69.45
2019-04-07T20:35:15.949Z,71.10
2019-04-07T20:37:27.907Z,68.33
2019-04-07T20:39:56.722Z,67.03
2019-04-07T20:42:05.161Z,66.95
2019-04-07T20:44:19.320Z,65.75
2019-04-07T20:46:41.713Z,64.80
2019-04-07T20:48:49.642Z,67.05
2019-04-07T20:51:05.134Z,68.12
2019-04-07T20:53:29.872Z,66.60
2019-04-07T20:55:53.987Z,66.00
2019-04-07T20:58:24.305Z,64.45
2019-04-07T21:00:57.680Z,64.72
2019-04-07T21:03:22.084Z,63.95
2019-04-07T21:05:37.824Z,66.85
2019-04-07T21:07:44.956Z,62.05
2019-04-07T21:09:54.303Z,61.63
2019-04-07T21:12:03.528Z,57.95
2019-04-07T21:14:11.833Z,55.98
2019-04-07T21:16:33.344Z,55.43
2019-04-07T21:18:59.085Z,54.70
2019-04-07T21:21:12.293Z,54.70
2019-04-07T21:23:21.655Z,58.95
2019-04-07T21:25:33.829Z,59.42
2019-04-07T21:27:49.054Z,58.42
2019-04-07T21:30:00.608Z,60.58
2019-04-07T21:32:09.811Z,61.42
2019-04-07T21:34:34.739Z,64.53
2019-04-07T21:36:49.035Z,61.63
2019-04-07T21:39:14.268Z,62.40
2019-04-07T21:41:30.703Z,64.17
2019-04-07T21:43:43.407Z,65.28
2019-04-07T21:45:54.359Z,65.22
2019-04-07T21:48:10.368Z,68.12
2019-04-07T21:50:28.197Z,68.57
2019-04-07T21:52:54.484Z,77.17
2019-04-07T21:55:01.822Z,75.87
2019-04-07T21:57:26.768Z,75.32
2019-04-07T21:59:33.684Z,79.15
2019-04-07T22:01:51.296Z,78.62
2019-04-07T22:04:06.835Z,76.12
2019-04-07T22:06:17.986Z,73.55
2019-04-07T22:08:26.381Z,71.17
2019-04-07T22:10:34.005Z,74.30
2019-04-07T22:12:40.996Z,76.07
2019-04-07T22:14:47.898Z,70.67
2019-04-07T22:16:54.782Z,70.08
2019-04-07T22:19:02.686Z,68.92
2019-04-07T22:21:09.752Z,58.52
2019-04-07T22:23:16.738Z,61.37
2019-04-07T22:25:36.175Z,58.87
2019-04-07T22:27:44.142Z,60.63
2019-04-07T22:29:51.914Z,60.10
2019-04-07T22:31:59.811Z,58.92
2019-04-07T22:34:06.953Z,56.00
2019-04-07T22:36:14.631Z,55.78
2019-04-07T22:38:23.723Z,57.67
2019-04-07T22:40:34.222Z,59.03
2019-04-07T22:42:39.260Z,51.60
2019-04-07T22:44:46.041Z,53.92
2019-04-07T22:46:52.729Z,53.15
2019-04-07T22:48:59.708Z,52.78
2019-04-07T22:51:09.904Z,50.33
2019-04-07T22:53:15.155Z,45.85
2019-04-07T22:55:22.666Z,45.17
2019-04-07T22:57:31.349Z,47.20
2019-04-07T22:59:38.114Z,52.45
2019-04-07T23:01:45.850Z,54.88
2019-04-07T23:03:52.583Z,56.20
2019-04-07T23:06:00.988Z,53.78
2019-04-07T23:08:08.278Z,51.63
2019-04-07T23:10:15.992Z,48.05
2019-04-07T23:12:22.981Z,48.83
2019-04-07T23:14:29.790Z,46.23
2019-04-07T23:16:36.507Z,46.45
2019-04-07T23:18:43.274Z,45.40
2019-04-07T23:20:49.981Z,45.05
2019-04-07T23:22:56.765Z,44.77
2019-04-07T23:25:04.409Z,48.50
2019-04-07T23:27:12.460Z,45.75
2019-04-07T23:29:19.834Z,47.95
2019-04-07T23:31:27.869Z,44.00
2019-04-07T23:33:34.892Z,40.90
2019-04-07T23:35:41.585Z,39.35
2019-04-07T23:37:48.868Z,47.08
2019-04-07T23:39:55.675Z,44.85
2019-04-07T23:42:02.801Z,43.13
2019-04-07T23:44:09.797Z,44.75
2019-04-07T23:46:22.864Z,46.20
2019-04-07T23:48:25.043Z,45.52
2019-04-07T23:50:31.755Z,47.48
2019-04-07T23:52:39.063Z,46.85
2019-04-07T23:54:46.146Z,48.02
2019-04-07T23:56:54.004Z,48.87
2019-04-07T23:59:01.255Z,49.47
